createdAt,value
2018-12-26T00:01:52.742Z,99104.83
2018-12-26T00:04:24.345Z,99114.49
2018-12-26T00:06:55.739Z,99102.65
2018-12-26T00:09:26.886Z,99073.06
2018-12-26T00:11:57.988Z,99076.58
2018-12-26T00:14:29.178Z,99070.23
2018-12-26T00:17:00.640Z,99071.38
2018-12-26T00:19:32.166Z,99087.11
2018-12-26T00:22:03.211Z,99080.24
2018-12-26T00:24:34.603Z,99082.42
2018-12-26T00:27:06.291Z,99089.26
2018-12-26T00:29:37.635Z,99091.78
2018-12-26T00:32:08.764Z,99102.78
2018-12-26T00:34:39.929Z,99102.63
2018-12-26T00:37:10.932Z,99097.46
2018-12-26T00:39:42.157Z,99106.31
2018-12-26T00:42:13.413Z,99085.62
2018-12-26T00:44:45.917Z,99095.15
2018-12-26T00:47:17.203Z,99078.28
2018-12-26T00:49:48.540Z,99079.98
2018-12-26T00:52:19.898Z,99089.98
2018-12-26T00:54:51.242Z,99080.66
2018-12-26T00:57:22.902Z,99082.65
2018-12-26T00:59:55.036Z,99081.00
2018-12-26T01:02:26.512Z,99081.34
2018-12-26T01:04:57.961Z,99084.50
2018-12-26T01:07:29.082Z,99072.14
2018-12-26T01:10:00.657Z,99068.32
2018-12-26T01:12:33.160Z,99066.64
2018-12-26T01:15:05.126Z,99072.64
2018-12-26T01:17:36.416Z,99074.63
2018-12-26T01:20:08.239Z,99059.59
2018-12-26T01:22:39.298Z,99066.28
2018-12-26T01:25:10.573Z,99066.13
2018-12-26T01:27:41.783Z,99064.27
2018-12-26T01:30:14.742Z,99075.95
2018-12-26T01:32:45.738Z,99065.91
2018-12-26T01:35:17.144Z,99066.41
2018-12-26T01:37:48.459Z,99066.41
2018-12-26T01:40:19.541Z,99075.95
2018-12-26T01:42:50.716Z,99076.45
2018-12-26T01:45:21.962Z,99078.09
2018-12-26T01:47:53.929Z,99071.94
2018-12-26T01:50:25.420Z,99069.42
2018-12-26T01:52:56.851Z,99058.23
2018-12-26T01:55:30.614Z,99062.25
2018-12-26T01:58:04.094Z,99062.06
2018-12-26T02:00:35.468Z,99056.41
2018-12-26T02:03:06.600Z,99069.61
2018-12-26T02:05:39.365Z,99077.45
2018-12-26T02:08:10.477Z,99046.18
2018-12-26T02:10:42.035Z,99053.05
2018-12-26T02:13:13.378Z,99047.86
2018-12-26T02:15:44.632Z,99046.52
2018-12-26T02:18:15.780Z,99033.66
2018-12-26T02:20:47.625Z,99039.34
2018-12-26T02:23:18.945Z,99049.84
2018-12-26T02:26:02.791Z,99053.55
2018-12-26T02:28:34.003Z,99022.96
2018-12-26T02:31:06.923Z,99022.96
2018-12-26T02:33:38.022Z,99032.81
2018-12-26T02:36:09.336Z,99024.14
2018-12-26T02:38:40.371Z,99026.66
2018-12-26T02:41:11.693Z,99016.13
2018-12-26T02:43:43.617Z,99015.13
2018-12-26T02:46:17.445Z,99020.14
2018-12-26T02:48:48.627Z,99011.81
2018-12-26T02:51:21.137Z,99011.97
2018-12-26T02:53:52.432Z,99011.47
2018-12-26T02:56:23.924Z,99021.66
2018-12-26T02:58:55.014Z,99001.47
2018-12-26T03:01:26.310Z,99019.48
2018-12-26T03:03:57.359Z,99025.70
2018-12-26T03:06:28.752Z,99015.52
2018-12-26T03:09:00.230Z,99001.66
2018-12-26T03:11:31.509Z,99007.69
2018-12-26T03:14:03.358Z,99006.66
2018-12-26T03:16:34.570Z,99004.67
2018-12-26T03:19:06.023Z,99002.66
2018-12-26T03:21:37.366Z,98994.83
2018-12-26T03:24:08.545Z,98995.97
2018-12-26T03:26:39.817Z,99014.17
2018-12-26T03:29:10.918Z,99000.48
2018-12-26T03:31:42.737Z,98995.97
2018-12-26T03:34:13.853Z,98996.13
2018-12-26T03:36:46.495Z,98988.41
2018-12-26T03:39:17.692Z,98988.11
2018-12-26T03:41:48.818Z,98988.75
2018-12-26T03:44:21.048Z,98995.93
2018-12-26T03:46:52.389Z,98983.41
2018-12-26T03:49:23.676Z,99000.78
2018-12-26T03:51:55.148Z,99000.09
2018-12-26T03:54:26.199Z,98967.87
2018-12-26T03:57:05.596Z,99001.43
2018-12-26T03:59:30.644Z,98999.44
2018-12-26T04:02:02.243Z,99000.93
2018-12-26T04:04:33.442Z,98995.59
2018-12-26T04:07:04.542Z,98995.74
2018-12-26T04:09:35.751Z,98982.88
2018-12-26T04:12:06.867Z,98983.41
2018-12-26T04:14:38.281Z,98990.59
2018-12-26T04:17:09.845Z,98980.39
2018-12-26T04:19:41.265Z,98982.22
2018-12-26T04:22:12.818Z,98986.87
2018-12-26T04:24:46.962Z,99017.46
2018-12-26T04:27:18.176Z,98982.34
2018-12-26T04:29:49.417Z,98986.68
2018-12-26T04:32:20.851Z,99004.21
2018-12-26T04:34:52.122Z,99007.23
2018-12-26T04:37:24.356Z,99014.56
2018-12-26T04:39:55.489Z,99003.37
2018-12-26T04:42:26.997Z,99016.73
2018-12-26T04:44:58.174Z,99023.42
2018-12-26T04:47:29.338Z,99029.11
2018-12-26T04:50:00.414Z,99000.55
2018-12-26T04:52:32.808Z,99009.41
2018-12-26T04:55:03.825Z,98993.87
2018-12-26T04:57:35.369Z,99006.23
2018-12-26T05:00:09.073Z,99022.43
2018-12-26T05:02:40.933Z,99011.39
2018-12-26T05:05:12.402Z,99019.27
2018-12-26T05:07:43.765Z,99030.30
2018-12-26T05:10:15.382Z,99018.91
2018-12-26T05:12:46.540Z,99020.44
2018-12-26T05:15:17.773Z,99023.95
2018-12-26T05:17:49.029Z,99013.76
2018-12-26T05:20:20.172Z,99016.43
2018-12-26T05:22:51.469Z,99017.27
2018-12-26T05:25:22.550Z,99013.91
2018-12-26T05:27:53.593Z,99021.94
2018-12-26T05:30:26.173Z,99018.61
2018-12-26T05:32:57.979Z,99003.41
2018-12-26T05:35:29.065Z,99006.59
2018-12-26T05:38:00.651Z,99007.46
2018-12-26T05:40:32.749Z,98997.61
2018-12-26T05:43:04.198Z,99011.31
2018-12-26T05:45:35.552Z,99012.66
2018-12-26T05:48:06.891Z,99011.16
2018-12-26T05:50:38.068Z,99016.81
2018-12-26T05:53:09.681Z,99004.80
2018-12-26T05:55:40.854Z,99007.66
2018-12-26T05:58:12.215Z,98994.63
2018-12-26T06:00:43.667Z,98995.78
2018-12-26T06:03:14.914Z,98992.58
2018-12-26T06:05:46.560Z,99002.77
2018-12-26T06:08:17.902Z,98994.59
2018-12-26T06:10:50.338Z,98989.75
2018-12-26T06:13:21.520Z,98997.11
2018-12-26T06:15:52.581Z,99009.14
2018-12-26T06:18:23.910Z,99008.80
2018-12-26T06:20:55.097Z,99000.97
2018-12-26T06:23:26.278Z,98993.45
2018-12-26T06:25:57.576Z,98993.80
2018-12-26T06:28:29.052Z,98991.27
2018-12-26T06:31:00.846Z,98992.77
2018-12-26T06:33:32.084Z,98996.13
2018-12-26T06:36:03.347Z,99000.97
2018-12-26T06:38:34.579Z,98988.30
2018-12-26T06:41:06.968Z,98979.44
2018-12-26T06:43:38.198Z,98983.76
2018-12-26T06:46:09.300Z,99004.14
2018-12-26T06:48:40.581Z,99002.13
2018-12-26T06:51:11.903Z,99008.80
2018-12-26T06:53:44.209Z,99010.48
2018-12-26T06:56:15.304Z,99013.34
2018-12-26T06:58:46.657Z,99004.64
2018-12-26T07:01:17.730Z,98998.80
2018-12-26T07:03:49.417Z,99007.66
2018-12-26T07:06:21.893Z,98997.80
2018-12-26T07:08:53.122Z,99008.80
2018-12-26T07:11:24.220Z,98999.79
2018-12-26T07:13:55.581Z,99015.33
2018-12-26T07:16:26.634Z,99002.80
2018-12-26T07:18:57.767Z,99018.34
2018-12-26T07:21:29.336Z,99011.81
2018-12-26T07:24:00.509Z,99013.68
2018-12-26T07:26:31.616Z,99009.48
2018-12-26T07:29:02.773Z,99021.88
2018-12-26T07:31:34.679Z,99014.33
2018-12-26T07:34:05.760Z,99014.17
2018-12-26T07:36:37.212Z,99009.02
2018-12-26T07:39:08.856Z,99005.20
2018-12-26T07:41:40.167Z,99007.37
2018-12-26T07:44:11.653Z,98994.05
2018-12-26T07:46:42.992Z,98999.73
2018-12-26T07:49:14.157Z,98992.37
2018-12-26T07:51:45.717Z,99002.08
2018-12-26T07:54:16.753Z,98997.55
2018-12-26T07:56:47.967Z,98996.55
2018-12-26T07:59:19.712Z,99000.88
2018-12-26T08:01:51.067Z,98990.19
2018-12-26T08:04:22.152Z,98992.71
2018-12-26T08:06:53.259Z,98989.02
2018-12-26T08:09:24.787Z,98989.02
2018-12-26T08:11:56.111Z,98994.36
2018-12-26T08:14:27.611Z,99004.70
2018-12-26T08:16:58.774Z,99009.02
2018-12-26T08:19:30.010Z,98996.31
2018-12-26T08:22:01.156Z,99003.98
2018-12-26T08:24:32.195Z,99011.16
2018-12-26T08:27:04.312Z,99011.81
2018-12-26T08:29:36.467Z,98998.11
2018-12-26T08:32:07.744Z,99002.13
2018-12-26T08:34:38.913Z,99015.83
2018-12-26T08:37:10.060Z,99006.12
2018-12-26T08:39:41.238Z,99006.62
2018-12-26T08:42:12.352Z,98994.41
2018-12-26T08:44:43.820Z,99000.59
2018-12-26T08:47:14.973Z,99003.27
2018-12-26T08:49:46.108Z,99009.30
2018-12-26T08:52:17.311Z,99000.97
2018-12-26T08:54:49.473Z,99011.31
2018-12-26T08:57:22.294Z,99010.97
2018-12-26T08:59:53.697Z,99014.33
2018-12-26T09:02:25.371Z,99002.30
2018-12-26T09:04:57.548Z,98999.79
2018-12-26T09:07:28.761Z,99013.64
2018-12-26T09:10:00.270Z,99025.36
2018-12-26T09:12:31.954Z,99017.34
2018-12-26T09:15:03.355Z,99012.66
2018-12-26T09:17:35.712Z,99004.79
2018-12-26T09:20:06.900Z,99019.30
2018-12-26T09:22:38.127Z,99008.45
2018-12-26T09:25:09.573Z,99008.45
2018-12-26T09:27:40.980Z,99005.44
2018-12-26T09:30:12.130Z,99006.28
2018-12-26T09:32:43.332Z,98999.94
2018-12-26T09:35:14.574Z,98995.24
2018-12-26T09:37:45.759Z,98998.75
2018-12-26T09:40:17.131Z,98995.24
2018-12-26T09:42:48.487Z,98994.59
2018-12-26T09:45:19.774Z,98991.42
2018-12-26T09:47:50.936Z,98988.75
2018-12-26T09:50:22.448Z,98980.54
2018-12-26T09:52:53.749Z,98979.36
2018-12-26T09:55:25.247Z,98994.74
2018-12-26T09:57:56.366Z,98984.20
2018-12-26T10:00:27.739Z,98976.19
2018-12-26T10:03:00.271Z,98977.83
2018-12-26T10:05:31.436Z,98967.48
2018-12-26T10:08:03.523Z,98981.49
2018-12-26T10:10:35.118Z,98977.63
2018-12-26T10:13:06.305Z,98981.00
2018-12-26T10:15:37.905Z,98991.34
2018-12-26T10:18:11.599Z,98990.19
2018-12-26T10:20:43.044Z,98980.15
2018-12-26T10:23:14.598Z,98975.45
2018-12-26T10:25:46.084Z,98977.63
2018-12-26T10:28:17.198Z,98968.08
2018-12-26T10:30:48.250Z,98963.56
2018-12-26T10:33:19.614Z,98962.53
2018-12-26T10:35:51.029Z,98971.73
2018-12-26T10:38:22.141Z,98968.91
2018-12-26T10:40:53.301Z,98959.06
2018-12-26T10:43:24.528Z,98953.02
2018-12-26T10:45:57.137Z,98961.53
2018-12-26T10:48:28.401Z,98949.02
2018-12-26T10:50:59.702Z,98945.69
2018-12-26T10:53:30.897Z,98948.00
2018-12-26T10:56:02.406Z,98949.34
2018-12-26T10:58:34.415Z,98945.33
2018-12-26T11:01:06.421Z,98937.31
2018-12-26T11:03:37.959Z,98950.15
2018-12-26T11:06:09.528Z,98942.11
2018-12-26T11:08:41.088Z,98935.23
2018-12-26T11:11:12.109Z,98939.25
2018-12-26T11:13:43.495Z,98943.27
2018-12-26T11:16:15.463Z,98947.61
2018-12-26T11:18:47.133Z,98952.62
2018-12-26T11:21:18.493Z,98949.09
2018-12-26T11:23:49.568Z,98945.23
2018-12-26T11:26:20.838Z,98947.75
2018-12-26T11:28:51.848Z,98940.70
2018-12-26T11:31:23.106Z,98959.38
2018-12-26T11:33:54.302Z,98945.34
2018-12-26T11:36:25.739Z,98949.66
2018-12-26T11:38:57.041Z,98962.38
2018-12-26T11:41:28.907Z,98958.17
2018-12-26T11:44:00.041Z,98968.72
2018-12-26T11:46:31.308Z,98965.83
2018-12-26T11:49:02.597Z,98968.67
2018-12-26T11:51:35.129Z,98961.29
2018-12-26T11:54:06.294Z,98958.94
2018-12-26T11:56:37.503Z,98967.11
2018-12-26T11:59:08.744Z,98964.73
2018-12-26T12:01:40.471Z,98974.09
2018-12-26T12:04:11.569Z,98963.72
2018-12-26T12:06:43.247Z,98956.14
2018-12-26T12:09:16.041Z,98960.00
2018-12-26T12:11:47.254Z,98956.77
2018-12-26T12:14:18.364Z,98963.80
2018-12-26T12:16:49.582Z,98965.78
2018-12-26T12:19:20.780Z,98960.06
2018-12-26T12:21:52.031Z,98972.59
2018-12-26T12:24:24.818Z,98975.27
2018-12-26T12:26:56.010Z,98938.63
2018-12-26T12:29:35.766Z,98952.35
2018-12-26T12:32:00.340Z,98960.69
2018-12-26T12:34:31.526Z,98968.86
2018-12-26T12:37:03.762Z,98976.44
2018-12-26T12:39:35.769Z,98966.55
2018-12-26T12:42:06.921Z,98967.72
2018-12-26T12:44:38.161Z,98965.20
2018-12-26T12:47:09.381Z,98973.07
2018-12-26T12:49:40.597Z,98979.56
2018-12-26T12:52:13.208Z,98980.24
2018-12-26T12:54:47.763Z,98971.18
2018-12-26T12:57:18.903Z,98984.20
2018-12-26T12:59:50.087Z,98986.09
2018-12-26T13:02:21.212Z,98992.79
2018-12-26T13:04:52.564Z,98997.45
2018-12-26T13:07:23.658Z,98988.72
2018-12-26T13:09:54.830Z,99004.28
2018-12-26T13:12:26.148Z,99003.78
2018-12-26T13:14:57.332Z,98995.95
2018-12-26T13:17:28.334Z,98998.09
2018-12-26T13:20:00.590Z,98989.39
2018-12-26T13:22:31.941Z,98990.06
2018-12-26T13:25:02.936Z,98985.69
2018-12-26T13:27:34.056Z,98987.02
2018-12-26T13:30:07.039Z,98994.20
2018-12-26T13:32:38.229Z,99003.23
2018-12-26T13:35:09.235Z,98993.36
2018-12-26T13:37:44.271Z,98999.53
2018-12-26T13:40:16.737Z,99013.22
2018-12-26T13:42:50.402Z,98994.84
2018-12-26T13:45:21.792Z,99020.61
2018-12-26T13:47:53.421Z,99020.95
2018-12-26T13:50:24.495Z,99021.11
2018-12-26T13:52:55.558Z,99013.58
2018-12-26T13:55:26.651Z,98995.53
2018-12-26T13:57:57.815Z,99016.45
2018-12-26T14:00:28.980Z,99021.95
2018-12-26T14:03:00.040Z,99011.58
2018-12-26T14:05:34.539Z,99004.55
2018-12-26T14:08:05.937Z,99011.24
2018-12-26T14:10:37.640Z,99001.03
2018-12-26T14:13:08.766Z,99006.53
2018-12-26T14:15:39.949Z,99007.87
2018-12-26T14:18:11.689Z,98996.99
2018-12-26T14:20:42.843Z,99006.72
2018-12-26T14:23:13.881Z,98989.48
2018-12-26T14:25:46.809Z,98999.19
2018-12-26T14:28:17.952Z,99003.55
2018-12-26T14:30:49.618Z,99008.91
2018-12-26T14:33:20.697Z,99009.06
2018-12-26T14:35:59.210Z,99004.69
2018-12-26T14:38:31.657Z,99006.86
2018-12-26T14:41:02.767Z,99026.47
2018-12-26T14:43:34.093Z,99012.08
2018-12-26T14:46:05.809Z,99021.76
2018-12-26T14:48:37.165Z,99026.33
2018-12-26T14:51:08.258Z,99021.16
2018-12-26T14:53:39.412Z,99025.19
2018-12-26T14:56:10.412Z,99014.30
2018-12-26T14:58:42.327Z,99021.19
2018-12-26T15:01:13.327Z,99014.49
2018-12-26T15:03:44.536Z,99027.54
2018-12-26T15:06:17.119Z,99013.66
2018-12-26T15:08:48.199Z,99009.33
2018-12-26T15:11:19.342Z,99032.75
2018-12-26T15:13:51.265Z,99018.87
2018-12-26T15:16:23.302Z,99024.86
2018-12-26T15:18:54.639Z,99025.22
2018-12-26T15:21:25.776Z,99026.90
2018-12-26T15:23:57.706Z,99026.91
2018-12-26T15:26:29.087Z,99025.13
2018-12-26T15:29:00.521Z,99016.59
2018-12-26T15:31:31.514Z,99021.41
2018-12-26T15:34:02.973Z,99026.61
2018-12-26T15:36:36.701Z,99022.09
2018-12-26T15:39:10.811Z,99018.08
2018-12-26T15:41:42.050Z,99032.81
2018-12-26T15:44:13.732Z,99024.45
2018-12-26T15:46:45.160Z,99023.28
2018-12-26T15:49:16.300Z,99026.96
2018-12-26T15:51:47.468Z,99031.81
2018-12-26T15:54:18.581Z,99030.98
2018-12-26T15:56:50.186Z,99036.49
2018-12-26T15:59:21.373Z,99027.48
2018-12-26T16:01:52.618Z,99045.20
2018-12-26T16:04:23.908Z,99032.31
2018-12-26T16:06:54.915Z,99026.96
2018-12-26T16:09:26.272Z,99036.49
2018-12-26T16:11:57.384Z,99041.84
2018-12-26T16:14:28.424Z,99042.54
2018-12-26T16:17:00.225Z,99029.01
2018-12-26T16:19:31.794Z,99027.67
2018-12-26T16:22:03.264Z,99022.17
2018-12-26T16:24:34.577Z,99033.52
2018-12-26T16:27:06.536Z,99013.95
2018-12-26T16:29:37.796Z,99017.97
2018-12-26T16:32:09.008Z,99027.86
2018-12-26T16:34:40.169Z,99015.29
2018-12-26T16:37:11.363Z,99024.16
2018-12-26T16:39:42.609Z,99039.91
2018-12-26T16:42:16.872Z,99005.61
2018-12-26T16:44:48.163Z,99014.98
2018-12-26T16:47:19.690Z,99026.34
2018-12-26T16:49:51.050Z,99015.29
2018-12-26T16:52:22.686Z,99026.84
2018-12-26T16:54:54.067Z,99023.16
2018-12-26T16:57:25.254Z,99029.99
2018-12-26T16:59:57.003Z,99023.47
2018-12-26T17:02:28.113Z,99035.70
2018-12-26T17:04:59.372Z,99034.17
2018-12-26T17:07:30.571Z,99035.51
2018-12-26T17:10:02.914Z,99049.42
2018-12-26T17:12:34.360Z,99043.04
2018-12-26T17:15:06.366Z,99039.02
2018-12-26T17:17:38.169Z,99060.28
2018-12-26T17:20:09.755Z,99049.07
2018-12-26T17:22:40.927Z,99062.45
2018-12-26T17:25:12.070Z,99055.41
2018-12-26T17:27:43.189Z,99056.91
2018-12-26T17:30:14.960Z,99068.31
2018-12-26T17:32:45.931Z,99067.12
2018-12-26T17:35:17.857Z,99089.05
2018-12-26T17:37:49.969Z,99071.64
2018-12-26T17:40:21.209Z,99071.48
2018-12-26T17:42:55.367Z,99075.85
2018-12-26T17:45:26.930Z,99068.81
2018-12-26T17:47:57.903Z,99075.00
2018-12-26T17:51:01.863Z,99062.95
2018-12-26T17:53:46.294Z,99068.45
2018-12-26T17:56:32.295Z,99062.12
2018-12-26T17:59:31.079Z,99061.78
2018-12-26T18:02:14.414Z,99064.64
2018-12-26T18:04:45.762Z,99056.62
2018-12-26T18:07:17.159Z,99060.48
2018-12-26T18:09:48.149Z,99054.78
2018-12-26T18:12:19.578Z,99060.44
2018-12-26T18:14:50.782Z,99061.92
2018-12-26T18:17:22.001Z,99066.48
2018-12-26T18:19:53.137Z,99062.97
2018-12-26T18:22:25.219Z,99067.32
2018-12-26T18:24:56.323Z,99075.16
2018-12-26T18:27:29.569Z,99076.35
2018-12-26T18:30:00.946Z,99070.64
2018-12-26T18:32:32.394Z,99072.53
2018-12-26T18:35:03.473Z,99079.22
2018-12-26T18:37:34.919Z,99078.37
2018-12-26T18:40:07.449Z,99074.38
2018-12-26T18:42:38.767Z,99054.64
2018-12-26T18:45:10.305Z,99064.35
2018-12-26T18:47:41.655Z,99079.37
2018-12-26T18:50:12.713Z,99073.38
2018-12-26T18:52:44.100Z,99066.00
2018-12-26T18:55:15.325Z,99072.55
2018-12-26T18:57:46.472Z,99081.55
2018-12-26T19:00:17.665Z,99074.52
2018-12-26T19:02:48.833Z,99068.03
2018-12-26T19:05:20.104Z,99083.58
2018-12-26T19:07:51.229Z,99083.89
2018-12-26T19:10:22.224Z,99080.55
2018-12-26T19:12:55.238Z,99075.02
2018-12-26T19:15:28.144Z,99089.92
2018-12-26T19:18:00.889Z,99090.77
2018-12-26T19:20:33.083Z,99081.89
2018-12-26T19:23:04.143Z,99077.88
2018-12-26T19:25:36.689Z,99086.22
2018-12-26T19:28:07.911Z,99092.75
2018-12-26T19:30:40.443Z,99089.94
2018-12-26T19:33:11.960Z,99085.57
2018-12-26T19:35:43.180Z,99091.77
2018-12-26T19:38:16.086Z,99079.22
2018-12-26T19:40:49.847Z,99088.25
2018-12-26T19:43:21.017Z,99095.78
2018-12-26T19:45:52.753Z,99102.28
2018-12-26T19:48:24.753Z,99102.81
2018-12-26T19:50:55.816Z,99098.80
2018-12-26T19:53:27.054Z,99095.48
2018-12-26T19:55:58.152Z,99102.81
2018-12-26T19:58:29.393Z,99110.70
2018-12-26T20:01:00.457Z,99104.84
2018-12-26T20:03:32.163Z,99094.98
2018-12-26T20:06:03.266Z,99089.45
2018-12-26T20:08:35.831Z,99105.86
2018-12-26T20:11:10.527Z,99112.55
2018-12-26T20:13:41.901Z,99103.52
2018-12-26T20:16:12.880Z,99104.01
2018-12-26T20:18:44.019Z,99098.50
2018-12-26T20:21:15.257Z,99101.68
2018-12-26T20:23:46.475Z,99092.80
2018-12-26T20:26:17.669Z,99094.80
2018-12-26T20:28:48.928Z,99115.37
2018-12-26T20:31:20.048Z,99105.84
2018-12-26T20:33:51.773Z,99102.17
2018-12-26T20:36:23.326Z,99112.88
2018-12-26T20:38:54.997Z,99098.80
2018-12-26T20:41:26.187Z,99099.50
2018-12-26T20:43:59.920Z,99094.95
2018-12-26T20:46:31.236Z,99094.79
2018-12-26T20:49:02.491Z,99097.12
2018-12-26T20:51:34.634Z,99085.23
2018-12-26T20:54:05.913Z,99088.11
2018-12-26T20:56:37.647Z,99092.13
2018-12-26T20:59:08.713Z,99093.96
2018-12-26T21:01:40.023Z,99079.24
2018-12-26T21:04:11.375Z,99087.45
2018-12-26T21:06:43.501Z,99087.95
2018-12-26T21:09:14.644Z,99086.42
2018-12-26T21:11:46.016Z,99079.42
2018-12-26T21:14:17.309Z,99093.80
2018-12-26T21:16:54.909Z,99094.94
2018-12-26T21:19:21.737Z,99083.09
2018-12-26T21:21:52.847Z,99085.77
2018-12-26T21:24:24.012Z,99084.08
2018-12-26T21:26:55.398Z,99092.76
2018-12-26T21:29:27.052Z,99094.78
2018-12-26T21:31:58.290Z,99084.73
2018-12-26T21:34:30.105Z,99083.58
2018-12-26T21:37:01.604Z,99084.57
2018-12-26T21:39:35.485Z,99090.23
2018-12-26T21:42:06.682Z,99090.22
2018-12-26T21:44:37.726Z,99090.22
2018-12-26T21:47:08.870Z,99090.22
2018-12-26T21:49:40.279Z,99089.22
2018-12-26T21:52:11.381Z,99091.55
2018-12-26T21:54:42.746Z,99087.20
2018-12-26T21:57:14.391Z,99093.23
2018-12-26T21:59:45.567Z,99102.77
2018-12-26T22:02:22.421Z,99095.72
2018-12-26T22:04:49.978Z,99099.92
2018-12-26T22:07:21.611Z,99093.59
2018-12-26T22:09:52.888Z,99096.06
2018-12-26T22:12:24.168Z,99091.55
2018-12-26T22:14:55.380Z,99096.70
2018-12-26T22:17:26.391Z,99099.38
2018-12-26T22:20:00.041Z,99095.28
2018-12-26T22:22:31.456Z,99086.06
2018-12-26T22:25:03.863Z,99087.89
2018-12-26T22:27:35.087Z,99092.25
2018-12-26T22:30:09.300Z,99084.72
2018-12-26T22:32:39.935Z,99089.78
2018-12-26T22:35:11.061Z,99093.59
2018-12-26T22:37:42.504Z,99086.11
2018-12-26T22:40:15.191Z,99084.77
2018-12-26T22:42:46.447Z,99084.44
2018-12-26T22:45:17.820Z,99087.80
2018-12-26T22:47:49.529Z,99088.26
2018-12-26T22:50:20.776Z,99089.78
2018-12-26T22:52:51.852Z,99089.44
2018-12-26T22:55:23.412Z,99089.59
2018-12-26T22:57:54.733Z,99089.24
2018-12-26T23:00:45.593Z,99092.47
2018-12-26T23:03:17.081Z,99087.77
2018-12-26T23:05:48.379Z,99095.98
2018-12-26T23:08:19.899Z,99088.61
2018-12-26T23:10:51.208Z,99093.46
2018-12-26T23:13:23.197Z,99088.26
2018-12-26T23:15:54.296Z,99082.95
2018-12-26T23:18:25.952Z,99090.83
2018-12-26T23:20:56.989Z,99092.47
2018-12-26T23:23:28.293Z,99087.47
2018-12-26T23:26:00.813Z,99096.34
2018-12-26T23:28:33.984Z,99092.67
2018-12-26T23:31:05.998Z,99104.56
2018-12-26T23:33:37.212Z,99095.55
2018-12-26T23:36:08.517Z,99106.44
2018-12-26T23:38:39.810Z,99106.93
2018-12-26T23:41:12.295Z,99103.92
2018-12-26T23:43:44.108Z,99107.09
2018-12-26T23:46:15.150Z,99112.98
2018-12-26T23:48:46.260Z,99107.47
2018-12-26T23:51:19.163Z,99113.12
2018-12-26T23:53:50.338Z,99108.77
2018-12-26T23:56:21.564Z,99108.62
2018-12-26T23:58:52.821Z,99107.78
